Terminal Aerodrome Forecast
Issued by NWS Wilmington, OH

Current Version | Previous Version | Text Only | Print | Product List | Glossary Off
Versions: 1 2 3 4 5 6 7 8 9 10 11 12 13 14 15

000
FTUS41 KILN 261700
TAFILN
TAF
KILN 261738Z 2618/2718 35011KT 6SM -RA BR FEW007 OVC015
     FM262100 32011KT P6SM OVC015
     FM270100 33007KT P6SM OVC025
     FM270400 34007KT P6SM SCT035 BKN150
     FM271300 34010KT P6SM VCSH BKN025
     FM271600 34012G22KT P6SM VCSH BKN035=

USA.gov is the U.S. government's official web portal to all federal, state and local government web resources and services.